createdAt,value
2018-12-13T00:02:25.657Z,91.10
2018-12-13T00:07:32.310Z,90.70
2018-12-13T00:12:36.865Z,90.50
2018-12-13T00:17:41.420Z,90.80
2018-12-13T00:22:46.057Z,91.30
2018-12-13T00:27:50.608Z,91.00
2018-12-13T00:32:55.168Z,91.00
2018-12-13T00:37:59.745Z,91.20
2018-12-13T00:43:04.327Z,90.70
2018-12-13T00:48:08.896Z,90.80
2018-12-13T00:53:13.522Z,90.60
2018-12-13T00:58:18.077Z,90.50
2018-12-13T01:03:22.683Z,91.00
2018-12-13T01:08:27.271Z,91.40
2018-12-13T01:13:31.888Z,91.50
2018-12-13T01:18:36.494Z,91.10
2018-12-13T01:23:41.073Z,91.40
2018-12-13T01:28:45.616Z,91.40
2018-12-13T01:33:50.181Z,91.90
2018-12-13T01:38:54.736Z,91.70
2018-12-13T01:43:59.295Z,91.70
2018-12-13T01:49:03.885Z,92.00
2018-12-13T01:54:08.508Z,92.00
2018-12-13T01:59:13.088Z,91.80
2018-12-13T02:04:17.694Z,91.80
2018-12-13T02:09:22.387Z,92.00
2018-12-13T02:14:26.976Z,92.00
2018-12-13T02:19:31.546Z,92.30
2018-12-13T02:24:36.176Z,91.80
2018-12-13T02:29:40.745Z,91.80
2018-12-13T02:34:45.324Z,92.30
2018-12-13T02:39:49.958Z,92.40
2018-12-13T02:44:54.571Z,92.60
2018-12-13T02:49:59.151Z,92.50
2018-12-13T02:55:03.760Z,92.50
2018-12-13T03:00:08.515Z,92.00
2018-12-13T03:05:15.204Z,92.00
2018-12-13T03:10:19.774Z,92.10
2018-12-13T03:15:24.353Z,92.30
2018-12-13T03:20:29.007Z,92.70
2018-12-13T03:25:33.567Z,92.40
2018-12-13T03:30:38.158Z,92.20
2018-12-13T03:35:42.766Z,92.10
2018-12-13T03:40:47.337Z,92.50
2018-12-13T03:45:51.965Z,92.50
2018-12-13T03:50:56.569Z,92.20
2018-12-13T03:56:01.145Z,92.30
2018-12-13T04:01:05.745Z,92.60
2018-12-13T04:06:10.343Z,92.50
2018-12-13T04:11:14.925Z,92.50
2018-12-13T04:16:19.559Z,92.50
2018-12-13T04:21:24.123Z,92.50
2018-12-13T04:26:28.679Z,92.20
2018-12-13T04:31:33.475Z,92.30
2018-12-13T04:36:38.061Z,92.50
2018-12-13T04:41:42.611Z,92.50
2018-12-13T04:46:47.223Z,92.30
2018-12-13T04:51:51.797Z,92.20
2018-12-13T04:56:56.345Z,92.10
2018-12-13T05:02:01.932Z,92.00
2018-12-13T05:07:06.503Z,91.70
2018-12-13T05:12:11.032Z,91.70
2018-12-13T05:17:15.595Z,91.70
2018-12-13T05:22:20.130Z,91.90
2018-12-13T05:27:24.701Z,92.10
2018-12-13T05:32:29.287Z,92.30
2018-12-13T05:37:33.849Z,92.30
2018-12-13T05:42:38.416Z,92.00
2018-12-13T05:47:43.062Z,92.40
2018-12-13T05:52:47.651Z,91.80
2018-12-13T05:57:52.639Z,91.90
2018-12-13T06:02:57.244Z,91.60
2018-12-13T06:08:01.808Z,91.50
2018-12-13T06:13:06.434Z,91.40
2018-12-13T06:18:11.022Z,91.20
2018-12-13T06:23:15.588Z,90.90
2018-12-13T06:28:20.167Z,90.70
2018-12-13T06:33:25.000Z,90.60
2018-12-13T06:38:29.785Z,90.60
2018-12-13T06:43:34.395Z,90.90
2018-12-13T06:48:38.953Z,90.60
2018-12-13T06:53:43.539Z,90.90
2018-12-13T06:58:48.110Z,90.90
2018-12-13T07:03:52.799Z,90.80
2018-12-13T07:08:57.326Z,90.60
2018-12-13T07:14:01.920Z,90.60
2018-12-13T07:19:06.527Z,91.30
2018-12-13T07:24:11.106Z,91.40
2018-12-13T07:29:15.717Z,91.50
2018-12-13T07:34:20.405Z,91.20
2018-12-13T07:39:25.079Z,91.00
2018-12-13T07:44:29.677Z,90.90
2018-12-13T07:49:34.249Z,91.20
2018-12-13T07:54:38.972Z,90.80
2018-12-13T07:59:43.595Z,91.10
2018-12-13T08:04:48.333Z,91.00
2018-12-13T08:09:52.910Z,91.10
2018-12-13T08:14:57.509Z,90.50
2018-12-13T08:20:02.099Z,90.70
2018-12-13T08:25:06.818Z,90.70
2018-12-13T08:30:11.529Z,90.80
2018-12-13T08:35:16.124Z,90.60
2018-12-13T08:40:20.739Z,90.70
2018-12-13T08:45:25.333Z,90.60
2018-12-13T08:50:29.927Z,91.10
2018-12-13T08:55:34.515Z,90.50
2018-12-13T09:00:39.148Z,90.50
2018-12-13T09:05:43.746Z,90.30
2018-12-13T09:10:48.343Z,90.80
2018-12-13T09:15:52.942Z,91.20
2018-12-13T09:20:57.498Z,91.20
2018-12-13T09:26:02.190Z,91.00
2018-12-13T09:31:06.759Z,90.90
2018-12-13T09:36:11.407Z,91.10
2018-12-13T09:41:16.017Z,91.30
2018-12-13T09:46:20.628Z,91.40
2018-12-13T09:51:25.197Z,91.70
2018-12-13T09:56:29.816Z,90.70
2018-12-13T10:01:34.423Z,90.20
2018-12-13T10:06:39.030Z,91.00
2018-12-13T10:11:43.623Z,90.60
2018-12-13T10:16:48.218Z,90.50
2018-12-13T10:21:53.931Z,90.30
2018-12-13T10:26:58.527Z,90.80
2018-12-13T10:32:03.085Z,91.10
2018-12-13T10:37:07.644Z,90.90
2018-12-13T10:42:12.243Z,89.80
2018-12-13T10:47:16.944Z,90.00
2018-12-13T10:52:21.550Z,90.00
2018-12-13T10:57:26.128Z,88.90
2018-12-13T11:02:39.208Z,89.20
2018-12-13T11:07:43.787Z,88.90
2018-12-13T11:12:48.701Z,89.10
2018-12-13T11:17:53.280Z,89.00
2018-12-13T11:22:57.845Z,89.60
2018-12-13T11:28:14.205Z,88.30
2018-12-13T11:33:18.896Z,88.50
2018-12-13T11:38:23.445Z,88.20
2018-12-13T11:43:28.011Z,88.50
2018-12-13T11:48:32.571Z,87.80
2018-12-13T11:53:37.527Z,87.40
2018-12-13T11:58:42.146Z,86.50
2018-12-13T12:03:46.703Z,85.00
2018-12-13T12:08:51.262Z,84.80
2018-12-13T12:13:55.856Z,84.80
2018-12-13T12:19:00.470Z,83.40
2018-12-13T12:24:05.044Z,82.90
2018-12-13T12:29:09.649Z,82.30
2018-12-13T12:34:15.043Z,82.70
2018-12-13T12:39:19.614Z,82.80
2018-12-13T12:44:26.236Z,83.00
2018-12-13T12:49:30.836Z,84.10
2018-12-13T12:54:35.448Z,82.70
2018-12-13T12:59:40.045Z,83.20
2018-12-13T13:04:44.620Z,82.70
2018-12-13T13:09:49.218Z,83.30
2018-12-13T13:14:53.827Z,84.00
2018-12-13T13:19:58.388Z,83.60
2018-12-13T13:25:03.072Z,83.00
2018-12-13T13:30:07.677Z,83.00
2018-12-13T13:35:12.281Z,84.10
2018-12-13T13:40:16.876Z,84.30
2018-12-13T13:45:23.040Z,84.30
2018-12-13T13:50:27.833Z,83.80
2018-12-13T13:55:32.535Z,84.20
2018-12-13T14:00:37.181Z,84.20
2018-12-13T14:05:41.839Z,83.00
2018-12-13T14:10:46.410Z,83.80
2018-12-13T14:15:51.008Z,84.90
2018-12-13T14:20:55.611Z,85.20
2018-12-13T14:26:00.181Z,84.90
2018-12-13T14:31:04.781Z,83.70
2018-12-13T14:36:09.359Z,83.70
2018-12-13T14:41:13.942Z,84.00
2018-12-13T14:46:24.225Z,84.80
2018-12-13T14:51:28.851Z,85.10
2018-12-13T14:56:33.454Z,85.40
2018-12-13T15:01:38.101Z,85.80
2018-12-13T15:06:42.715Z,85.10
2018-12-13T15:11:47.321Z,85.30
2018-12-13T15:16:58.306Z,85.20
2018-12-13T15:22:02.912Z,85.80
2018-12-13T15:27:07.590Z,86.30
2018-12-13T15:32:12.480Z,86.10
2018-12-13T15:37:17.932Z,87.10
2018-12-13T15:42:23.128Z,86.10
2018-12-13T15:47:28.223Z,86.40
2018-12-13T15:52:33.276Z,85.50
2018-12-13T15:57:38.354Z,86.60
2018-12-13T16:02:45.668Z,86.80
2018-12-13T16:07:52.354Z,87.40
2018-12-13T16:12:58.065Z,86.90
2018-12-13T16:18:03.393Z,86.80
2018-12-13T16:23:08.541Z,87.60
2018-12-13T16:28:13.696Z,87.00
2018-12-13T16:33:18.900Z,87.40
2018-12-13T16:38:24.083Z,88.50
2018-12-13T16:43:29.354Z,88.20
2018-12-13T16:48:34.833Z,88.50
2018-12-13T16:53:40.043Z,88.40
2018-12-13T16:58:45.590Z,88.60
2018-12-13T17:03:51.492Z,88.00
2018-12-13T17:08:56.855Z,88.00
2018-12-13T17:14:02.097Z,87.80
2018-12-13T17:19:09.017Z,87.90
2018-12-13T17:24:15.090Z,89.00
2018-12-13T17:29:21.801Z,88.80
2018-12-13T17:34:27.280Z,88.70
2018-12-13T17:39:32.865Z,89.40
2018-12-13T17:44:39.025Z,88.50
2018-12-13T17:49:45.193Z,88.50
2018-12-13T17:54:50.847Z,89.10
2018-12-13T17:59:56.403Z,89.80
2018-12-13T18:05:02.794Z,89.00
2018-12-13T18:10:11.078Z,89.30
2018-12-13T18:15:16.481Z,89.80
2018-12-13T18:20:21.937Z,90.10
2018-12-13T18:25:28.085Z,90.40
2018-12-13T18:30:34.183Z,90.00
2018-12-13T18:35:39.520Z,88.90
2018-12-13T18:40:45.777Z,89.30
2018-12-13T18:45:52.008Z,89.90
2018-12-13T18:50:58.078Z,89.90
2018-12-13T18:56:03.980Z,89.60
2018-12-13T19:01:13.016Z,90.10
2018-12-13T19:06:19.883Z,89.90
2018-12-13T19:11:26.092Z,89.90
2018-12-13T19:16:32.413Z,90.30
2018-12-13T19:21:39.202Z,90.30
2018-12-13T19:26:45.740Z,90.40
2018-12-13T19:31:52.044Z,90.20
2018-12-13T19:36:58.094Z,90.10
2018-12-13T19:42:04.082Z,90.30
2018-12-13T19:47:09.972Z,90.20
2018-12-13T19:52:16.086Z,90.20
2018-12-13T19:57:22.457Z,90.40
2018-12-13T20:02:29.926Z,90.10
2018-12-13T20:07:37.471Z,89.90
2018-12-13T20:12:43.237Z,88.80
2018-12-13T20:17:49.679Z,88.60
2018-12-13T20:22:55.579Z,88.60
2018-12-13T20:28:03.527Z,88.90
2018-12-13T20:33:10.035Z,89.60
2018-12-13T20:38:15.919Z,88.60
2018-12-13T20:43:22.767Z,89.70
2018-12-13T20:48:29.703Z,90.00
2018-12-13T20:53:35.494Z,88.10
2018-12-13T20:58:42.890Z,88.00
2018-12-13T21:03:48.589Z,88.30
2018-12-13T21:08:54.348Z,88.40
2018-12-13T21:13:59.961Z,87.90
2018-12-13T21:19:06.314Z,88.00
2018-12-13T21:24:11.858Z,89.50
2018-12-13T21:29:18.551Z,89.10
2018-12-13T21:34:24.225Z,88.70
2018-12-13T21:39:30.512Z,88.80
2018-12-13T21:44:36.049Z,88.60
2018-12-13T21:49:40.979Z,88.50
2018-12-13T21:54:46.040Z,90.30
2018-12-13T21:59:51.005Z,90.30
2018-12-13T22:04:56.017Z,90.30
2018-12-13T22:10:01.888Z,90.20
2018-12-13T22:15:10.929Z,90.00
2018-12-13T22:20:15.885Z,90.20
2018-12-13T22:25:21.042Z,90.00
2018-12-13T22:30:25.872Z,90.00
2018-12-13T22:35:30.695Z,90.10
2018-12-13T22:40:35.693Z,90.20
2018-12-13T22:45:40.510Z,90.10
2018-12-13T22:50:45.473Z,90.40
2018-12-13T22:55:50.318Z,90.00
2018-12-13T23:00:55.201Z,90.60
2018-12-13T23:06:00.116Z,90.20
2018-12-13T23:11:05.187Z,90.80
2018-12-13T23:16:10.103Z,90.70
2018-12-13T23:21:14.942Z,90.60
2018-12-13T23:26:19.807Z,90.70
2018-12-13T23:31:24.732Z,91.10
2018-12-13T23:36:29.495Z,91.00
2018-12-13T23:41:39.173Z,90.90
2018-12-13T23:46:41.644Z,90.80
2018-12-13T23:51:46.600Z,90.90
2018-12-13T23:56:51.502Z,90.50
